Time;durP1;ratioP1;P1;durP2;ratioP2;P2;SDS_P1;SDS_P2;PMS_P1;PMS_P2;Temp;Humidity;BMP_temperature;BMP_pressure;BME280_temperature;BME280_humidity;BME280_pressure;Samples;Min_cycle;Max_cycle;Signal;HPM_P1;HPM_P2
2022/10/12 00:01:09;;;;;;;5.95;2.65;;;;;;;17.49;60.51;102633.00;6356332;22;20022;-89
2022/10/12 00:03:36;;;;;;;4.32;2.63;;;;;;;17.49;60.49;102627.81;6310515;22;20010;-83
2022/10/12 00:06:08;;;;;;;3.67;2.75;;;;;;;17.52;60.35;102634.78;6356567;22;20006;-89
2022/10/12 00:08:36;;;;;;;4.13;2.75;;;;;;;17.50;60.26;102632.16;6353454;22;20061;-89
2022/10/12 00:11:02;;;;;;;4.40;2.70;;;;;;;17.48;60.38;102633.84;6328988;22;20414;-89
2022/10/12 00:13:28;;;;;;;3.63;2.53;;;;;;;17.49;60.48;102630.41;6352485;22;19998;-89
2022/10/12 00:15:53;;;;;;;4.55;2.90;;;;;;;17.49;60.63;102630.41;6327734;22;20042;-88
2022/10/12 00:18:19;;;;;;;3.83;2.67;;;;;;;17.51;60.43;102630.41;6353369;22;20033;-89
2022/10/12 00:20:44;;;;;;;4.18;2.80;;;;;;;17.49;60.34;102622.59;6302713;22;20010;-88
2022/10/12 00:23:19;;;;;;;4.30;2.70;;;;;;;17.50;60.35;102626.06;6327903;22;20013;-88
2022/10/12 00:25:45;;;;;;;3.58;3.00;;;;;;;17.48;60.41;102631.25;6353287;22;20005;-89
2022/10/12 00:28:10;;;;;;;4.78;2.72;;;;;;;17.48;60.36;102629.53;6327762;22;20501;-89
2022/10/12 00:37:02;;;;;;;4.20;2.60;;;;;;;17.47;60.38;102627.75;6389710;22;20048;-89
2022/10/12 00:39:29;;;;;;;3.40;2.65;;;;;;;17.48;60.18;102626.03;6358070;22;20002;-88
2022/10/12 00:41:54;;;;;;;3.60;2.70;;;;;;;17.47;60.40;102627.75;6305657;22;20069;-89
2022/10/12 00:44:46;;;;;;;5.05;2.83;;;;;;;17.46;60.44;102623.41;6302695;22;20009;-90
2022/10/12 00:50:34;;;;;;;4.40;2.63;;;;;;;17.46;60.39;102618.22;6387857;22;20053;-89
2022/10/12 00:55:55;;;;;;;3.72;2.53;;;;;;;17.45;60.47;102613.84;6323140;22;20034;-88
2022/10/12 01:01:47;;;;;;;3.70;2.45;;;;;;;17.46;60.56;102613.00;6229682;23;20408;-89
2022/10/12 01:04:12;;;;;;;3.75;2.47;;;;;;;17.43;60.46;102615.53;6203890;23;20009;-90
2022/10/12 01:13:22;;;;;;;5.03;2.30;;;;;;;17.45;60.45;102607.75;6232148;23;20024;-89
2022/10/12 01:16:03;;;;;;;3.58;2.30;;;;;;;17.46;60.58;102617.31;6201333;23;20071;-88
2022/10/12 01:18:55;;;;;;;3.45;2.20;;;;;;;17.43;60.48;102618.13;6199132;23;20142;-88
2022/10/12 01:21:22;;;;;;;4.60;2.60;;;;;;;17.44;60.50;102617.31;6202764;23;20032;-89
2022/10/12 01:31:03;;;;;;;3.50;2.25;;;;;;;17.44;60.38;102606.91;6373089;22;20059;-87
2022/10/12 01:39:54;;;;;;;3.45;2.25;;;;;;;17.42;60.79;102605.09;6379663;22;20038;-88
2022/10/12 02:08:10;;;;;;;;;;;;;;;17.40;60.53;102573.84;6372710;22;20022;-89
2022/10/12 02:11:13;;;;;;;3.35;1.95;;;;;;;17.40;60.52;102571.25;6353462;22;19902;-90
2022/10/12 02:40:10;;;;;;;2.88;1.88;;;;;;;17.35;60.33;102544.25;6393175;22;20087;-88
2022/10/12 02:49:45;;;;;;;3.58;2.05;;;;;;;17.33;60.49;102545.94;6393641;22;20052;-90
2022/10/12 02:58:57;;;;;;;2.40;1.70;;;;;;;17.34;60.42;102539.91;6266164;22;20050;-89
2022/10/12 03:01:22;;;;;;;3.00;1.63;;;;;;;17.32;60.38;102539.00;6256381;22;20018;-89
2022/10/12 03:03:54;;;;;;;2.97;1.70;;;;;;;17.31;60.31;102536.34;6362172;22;20011;-88
2022/10/12 03:15:01;;;;;;;3.78;1.60;;;;;;;17.30;60.39;102530.28;6379676;22;20022;-87
2022/10/12 03:17:27;;;;;;;2.58;1.60;;;;;;;17.30;60.51;102527.69;6338024;22;20073;-87
2022/10/12 03:25:25;;;;;;;2.95;1.70;;;;;;;17.29;60.46;102531.16;6379671;22;20014;-87
2022/10/12 03:28:44;;;;;;;2.78;1.73;;;;;;;17.31;60.45;102529.44;6367718;22;20031;-88
2022/10/12 03:31:48;;;;;;;2.25;1.45;;;;;;;17.28;60.31;102525.03;6362428;22;20010;-87
2022/10/12 03:41:29;;;;;;;2.70;1.70;;;;;;;17.30;60.35;102535.47;6395517;22;20085;-84
2022/10/12 03:44:59;;;;;;;1.98;1.33;;;;;;;17.28;60.43;102527.63;6362493;22;20014;-86
2022/10/12 04:03:17;;;;;;;2.53;1.67;;;;;;;17.23;60.12;102526.69;6377106;22;20023;-90
2022/10/12 04:37:36;;;;;;;3.60;1.50;;;;;;;17.22;60.43;102513.63;6334606;22;20023;-89
2022/10/12 04:43:24;;;;;;;3.33;1.60;;;;;;;17.23;60.23;102513.69;6336950;22;20034;-88
2022/10/12 04:50:02;;;;;;;3.88;1.55;;;;;;;17.19;60.39;102514.47;6242475;23;20028;-86
2022/10/12 04:55:50;;;;;;;2.85;1.30;;;;;;;17.20;60.37;102503.22;6241426;23;20028;-84
2022/10/12 04:58:18;;;;;;;3.15;1.50;;;;;;;17.21;60.02;102502.38;6214339;23;20059;-83
2022/10/12 05:00:47;;;;;;;2.97;1.52;;;;;;;17.21;60.00;102502.38;6216451;23;20027;-85
2022/10/12 05:03:12;;;;;;;2.97;1.63;;;;;;;17.20;60.31;102507.53;6211337;23;20008;-84
2022/10/12 05:08:59;;;;;;;11.55;4.47;;;;;;;17.20;60.31;102491.91;6239226;23;20052;-86
2022/10/12 05:11:25;;;;;;;11.10;3.90;;;;;;;17.17;60.38;102484.94;6207294;23;20012;-86
2022/10/12 05:13:58;;;;;;;9.50;3.65;;;;;;;17.19;60.26;102498.84;6209484;23;20087;-83
2022/10/12 05:16:24;;;;;;;6.43;3.40;;;;;;;17.19;60.23;102498.00;6207410;23;20021;-82
2022/10/12 05:18:49;;;;;;;8.30;3.58;;;;;;;17.19;60.40;102485.84;6220747;22;20037;-82
2022/10/12 05:21:16;;;;;;;9.13;3.38;;;;;;;17.19;60.48;102485.84;6244558;22;20003;-82
2022/10/12 05:23:41;;;;;;;8.13;3.53;;;;;;;17.19;60.39;102485.84;6293624;22;20068;-81
2022/10/12 05:26:07;;;;;;;5.93;2.88;;;;;;;17.18;60.20;102478.91;6286026;22;20385;-80
2022/10/12 05:28:33;;;;;;;8.25;3.22;;;;;;;17.17;60.35;102482.34;6288198;22;20369;-79
2022/10/12 05:30:58;;;;;;;9.27;3.20;;;;;;;17.17;60.30;102486.66;6285441;22;20007;-78
2022/10/12 05:33:23;;;;;;;7.60;3.08;;;;;;;17.18;60.31;102494.53;6259714;22;20003;-82
2022/10/12 05:35:49;;;;;;;6.88;3.03;;;;;;;17.18;59.79;102485.81;6294986;22;20011;-81
2022/10/12 05:38:15;;;;;;;5.90;2.78;;;;;;;17.19;60.30;102500.59;6313857;22;20094;-80
2022/10/12 05:40:40;;;;;;;7.78;3.15;;;;;;;17.19;60.55;102498.84;6312825;22;20041;-79
2022/10/12 05:43:08;;;;;;;6.80;3.25;;;;;;;17.18;60.39;102501.41;6320039;22;20010;-83
2022/10/12 05:45:44;;;;;;;10.90;4.00;;;;;;;17.18;60.41;102493.63;6320057;22;20011;-83
2022/10/12 05:48:09;;;;;;;11.15;3.80;;;;;;;17.18;60.43;102504.03;6318166;22;20006;-80
2022/10/12 05:50:35;;;;;;;10.40;4.03;;;;;;;17.16;60.34;102487.50;6290770;22;20017;-80
2022/10/12 05:53:00;;;;;;;8.35;3.33;;;;;;;17.17;60.32;102497.94;6342571;22;20475;-80
2022/10/12 05:55:26;;;;;;;8.50;3.60;;;;;;;17.18;60.27;102496.22;6288912;22;20090;-80
2022/10/12 05:57:51;;;;;;;8.77;3.70;;;;;;;17.18;60.49;102501.41;6289808;22;20014;-79
2022/10/12 06:00:16;;;;;;;8.48;3.80;;;;;;;17.24;60.28;102492.00;6315365;22;20010;-77
2022/10/12 06:02:42;;;;;;;7.85;3.45;;;;;;;17.30;60.28;102490.38;6314990;22;20033;-77
2022/10/12 06:05:07;;;;;;;10.05;3.50;;;;;;;17.34;60.30;102494.78;6315431;22;20411;-78
2022/10/12 06:07:33;;;;;;;9.05;3.83;;;;;;;17.35;59.93;102491.31;6289046;22;20007;-77
2022/10/12 06:09:59;;;;;;;9.65;3.38;;;;;;;17.36;60.07;102491.38;6314815;22;20007;-77
2022/10/12 06:12:25;;;;;;;8.52;3.10;;;;;;;17.38;60.25;102494.00;6315242;22;20320;-77
2022/10/12 06:14:51;;;;;;;10.70;3.60;;;;;;;17.39;60.20;102494.00;6288608;22;20007;-77
2022/10/12 06:17:16;;;;;;;9.60;3.40;;;;;;;17.39;60.05;102488.81;6314834;22;20014;-77
2022/10/12 06:19:42;;;;;;;8.93;3.25;;;;;;;17.41;60.04;102487.09;6314047;22;20334;-77
2022/10/12 06:22:07;;;;;;;8.43;3.15;;;;;;;17.42;60.01;102494.06;6288486;22;20141;-78
2022/10/12 06:24:32;;;;;;;12.15;3.60;;;;;;;17.41;59.99;102475.81;6313758;22;20005;-77
2022/10/12 06:26:58;;;;;;;12.45;3.90;;;;;;;17.42;59.95;102488.88;6317852;22;20010;-78
2022/10/12 06:29:23;;;;;;;7.50;3.42;;;;;;;17.42;60.03;102482.75;6342294;22;20014;-77
2022/10/12 06:31:49;;;;;;;7.03;3.47;;;;;;;17.41;60.07;102479.28;6315077;22;20422;-77
2022/10/12 06:34:15;;;;;;;8.70;3.38;;;;;;;17.42;60.18;102474.97;6289338;22;20006;-77
2022/10/12 06:36:41;;;;;;;8.45;3.10;;;;;;;17.42;60.06;102480.16;6315038;22;20030;-78
2022/10/12 06:39:07;;;;;;;6.50;3.22;;;;;;;17.43;60.10;102476.72;6342535;22;20017;-78
2022/10/12 06:41:32;;;;;;;9.18;3.38;;;;;;;17.43;60.00;102472.41;6289567;22;20056;-78
2022/10/12 06:43:58;;;;;;;7.97;2.67;;;;;;;17.44;60.04;102465.47;6315337;22;20406;-78
2022/10/12 06:46:23;;;;;;;6.10;3.03;;;;;;;17.44;60.03;102466.34;6343188;22;20381;-77
2022/10/12 06:48:48;;;;;;;7.35;3.28;;;;;;;17.48;59.82;102473.38;6289381;22;20022;-77
2022/10/12 06:51:14;;;;;;;8.55;3.28;;;;;;;17.50;59.58;102469.91;6314896;22;20015;-78
2022/10/12 06:53:39;;;;;;;7.55;3.30;;;;;;;17.51;59.64;102472.53;6289309;22;20409;-78
2022/10/12 06:56:07;;;;;;;6.60;3.03;;;;;;;17.50;59.72;102473.38;6315167;22;20017;-79
2022/10/12 06:58:32;;;;;;;5.32;2.72;;;;;;;17.50;59.92;102465.56;6342701;22;20003;-78
2022/10/12 07:01:00;;;;;;;6.15;2.75;;;;;;;17.50;59.70;102475.09;6315193;22;20034;-78
2022/10/12 07:03:26;;;;;;;6.68;2.72;;;;;;;17.52;59.85;102469.06;6342991;22;20331;-77
2022/10/12 07:05:51;;;;;;;6.32;3.13;;;;;;;17.54;59.66;102476.91;6315181;22;20013;-78
2022/10/12 07:08:16;;;;;;;7.13;2.67;;;;;;;17.54;59.52;102476.91;6342645;22;20426;-78
2022/10/12 07:10:42;;;;;;;9.95;2.70;;;;;;;17.54;59.72;102477.78;6289178;22;20007;-77
2022/10/12 07:13:07;;;;;;;7.63;2.88;;;;;;;17.55;59.57;102483.84;6342026;22;20026;-78
2022/10/12 07:15:32;;;;;;;6.07;2.92;;;;;;;17.57;59.63;102479.56;6287468;22;20449;-78
2022/10/12 07:17:58;;;;;;;5.78;2.83;;;;;;;17.58;59.53;102483.94;6313634;22;20467;-78
2022/10/12 07:20:23;;;;;;;6.07;2.92;;;;;;;17.58;59.62;102481.31;6313713;22;20029;-77
2022/10/12 07:22:48;;;;;;;6.40;2.85;;;;;;;17.59;59.45;102480.47;6313606;22;20088;-78
2022/10/12 07:25:14;;;;;;;6.60;2.63;;;;;;;17.58;59.68;102477.00;6313760;22;20003;-78
2022/10/12 07:27:39;;;;;;;4.75;2.42;;;;;;;17.58;59.52;102478.72;6313912;22;20426;-78
2022/10/12 07:30:05;;;;;;;5.28;2.42;;;;;;;17.57;59.50;102477.84;6288055;22;20041;-78
2022/10/12 07:32:31;;;;;;;4.32;2.40;;;;;;;17.58;59.36;102471.78;6313193;22;20006;-78
2022/10/12 07:34:56;;;;;;;4.85;2.45;;;;;;;17.58;59.33;102471.78;6287111;22;20014;-77
2022/10/12 07:37:22;;;;;;;6.20;2.80;;;;;;;17.62;58.87;102473.59;6262049;22;20030;-78
2022/10/12 07:39:48;;;;;;;5.13;2.50;;;;;;;17.71;58.91;102478.06;6313736;22;20343;-77
2022/10/12 07:42:13;;;;;;;5.97;2.47;;;;;;;17.82;58.44;102473.94;6287353;22;20038;-78
2022/10/12 07:44:39;;;;;;;8.15;2.97;;;;;;;18.00;58.28;102475.06;6313424;22;20002;-78
2022/10/12 07:47:04;;;;;;;4.45;2.40;;;;;;;18.08;58.04;102478.66;6313537;22;20021;-78
2022/10/12 07:49:30;;;;;;;4.40;2.42;;;;;;;18.19;58.01;102474.47;6313507;22;20072;-78
2022/10/12 07:51:55;;;;;;;5.88;2.35;;;;;;;18.23;57.85;102486.69;6341362;22;20002;-79
2022/10/12 07:54:20;;;;;;;4.95;2.47;;;;;;;18.24;57.67;102483.22;6289402;22;20011;-79
2022/10/12 07:56:46;;;;;;;4.95;2.65;;;;;;;18.19;57.96;102487.50;6287451;22;20015;-79
2022/10/12 07:59:11;;;;;;;6.03;2.70;;;;;;;18.22;57.86;102489.28;6313711;22;20422;-79
2022/10/12 08:01:36;;;;;;;4.68;2.50;;;;;;;18.25;57.92;102489.34;6261810;22;20017;-78
2022/10/12 08:04:02;;;;;;;5.13;2.20;;;;;;;18.29;57.61;102496.31;6287491;22;20090;-79
2022/10/12 08:06:32;;;;;;;5.03;2.28;;;;;;;18.32;57.85;102495.50;6312833;22;20035;-79
2022/10/12 08:08:59;;;;;;;4.85;2.20;;;;;;;18.32;57.98;102492.91;6312575;22;20007;-79
2022/10/12 08:11:25;;;;;;;4.80;2.40;;;;;;;18.32;57.75;102492.91;6343052;22;20055;-79
2022/10/12 08:13:50;;;;;;;5.25;2.35;;;;;;;18.32;57.96;102496.38;6313488;22;20430;-79
2022/10/12 08:16:19;;;;;;;4.63;2.33;;;;;;;18.30;57.75;102485.03;6287545;22;20056;-79
2022/10/12 08:18:45;;;;;;;4.65;2.22;;;;;;;18.30;58.00;102492.88;6340860;22;20007;-79
2022/10/12 08:21:12;;;;;;;5.90;2.47;;;;;;;18.29;57.77;102485.88;6312848;22;20077;-78
2022/10/12 08:23:38;;;;;;;4.85;2.38;;;;;;;18.27;58.12;102488.50;6340499;22;20052;-79
2022/10/12 08:26:04;;;;;;;5.45;2.58;;;;;;;18.24;57.84;102487.56;6340875;22;20002;-79
2022/10/12 08:28:30;;;;;;;5.18;2.20;;;;;;;18.24;58.01;102487.56;6341003;22;20002;-79
2022/10/12 08:30:55;;;;;;;4.40;2.20;;;;;;;18.22;58.05;102489.28;6287150;22;20063;-79
2022/10/12 08:33:21;;;;;;;3.42;2.22;;;;;;;18.19;58.03;102489.25;6313167;22;20007;-79
2022/10/12 08:35:46;;;;;;;4.25;2.25;;;;;;;18.16;58.13;102492.69;6340945;22;20415;-78
2022/10/12 08:38:13;;;;;;;4.50;2.20;;;;;;;18.17;58.28;102496.16;6315124;22;20018;-78
2022/10/12 08:40:44;;;;;;;5.85;2.25;;;;;;;18.14;58.22;102501.31;6312482;22;20086;-78
2022/10/12 08:43:27;;;;;;;3.95;2.20;;;;;;;18.11;58.26;102494.31;6312989;22;20014;-78
2022/10/12 08:45:56;;;;;;;4.47;2.10;;;;;;;18.08;58.31;102484.75;6312510;22;20067;-79
2022/10/12 08:48:41;;;;;;;3.65;2.05;;;;;;;18.08;58.32;102483.88;6313073;22;20014;-79
2022/10/12 08:51:13;;;;;;;4.85;2.30;;;;;;;18.06;58.55;102486.44;6311433;22;20006;-78
2022/10/12 08:54:04;;;;;;;3.88;1.80;;;;;;;18.04;58.05;102480.34;6339776;22;19999;-78
2022/10/12 08:56:29;;;;;;;4.05;2.03;;;;;;;18.03;58.49;102488.13;6312328;22;19999;-78
2022/10/12 08:58:55;;;;;;;3.75;2.00;;;;;;;18.04;58.47;102488.16;6312599;22;20330;-78
2022/10/12 09:01:37;;;;;;;3.85;2.00;;;;;;;18.04;58.46;102487.28;6313126;22;20330;-78
2022/10/12 09:04:28;;;;;;;4.20;1.83;;;;;;;18.05;58.30;102494.22;6312624;22;20007;-78
2022/10/12 09:07:21;;;;;;;3.72;1.92;;;;;;;18.03;58.16;102488.13;6340962;22;20007;-78
2022/10/12 09:10:23;;;;;;;2.83;1.90;;;;;;;18.03;58.17;102486.41;6340174;22;20003;-78
2022/10/12 09:13:18;;;;;;;3.35;1.85;;;;;;;18.02;58.40;102486.38;6312302;22;20023;-78
2022/10/12 09:16:01;;;;;;;4.35;2.03;;;;;;;17.99;58.47;102482.00;6292344;22;20122;-78
2022/10/12 09:18:36;;;;;;;2.85;1.73;;;;;;;17.98;58.31;102488.06;6340022;22;19999;-78
2022/10/12 09:21:05;;;;;;;3.63;2.10;;;;;;;17.98;58.23;102485.44;6340417;22;20003;-78
2022/10/12 09:23:36;;;;;;;3.05;1.70;;;;;;;17.97;58.39;102486.31;6312079;22;20011;-79
2022/10/12 09:26:28;;;;;;;4.68;1.95;;;;;;;17.96;58.49;102486.28;6312467;22;19999;-78
2022/10/12 09:28:56;;;;;;;2.60;1.65;;;;;;;17.94;58.24;102483.66;6312227;22;20064;-78
2022/10/12 09:31:42;;;;;;;3.35;1.80;;;;;;;17.95;58.54;102481.94;6312352;22;20003;-78
2022/10/12 09:34:08;;;;;;;3.40;1.73;;;;;;;17.94;58.62;102488.00;6339691;22;20026;-78
2022/10/12 09:36:39;;;;;;;3.97;1.90;;;;;;;17.92;58.60;102484.47;6311707;22;20080;-78
2022/10/12 09:39:11;;;;;;;2.92;1.80;;;;;;;17.92;58.50;102477.56;6339640;22;20010;-78
2022/10/12 09:41:41;;;;;;;3.10;1.87;;;;;;;17.91;58.46;102482.75;6339728;22;19995;-78
2022/10/12 09:44:12;;;;;;;2.90;1.80;;;;;;;17.91;58.38;102477.53;6339837;22;20453;-78
2022/10/12 09:46:50;;;;;;;3.63;1.75;;;;;;;17.91;58.53;102482.75;6339594;22;20039;-78
2022/10/12 09:49:15;;;;;;;2.63;1.60;;;;;;;17.91;58.62;102483.63;6312511;22;20011;-78
2022/10/12 09:51:41;;;;;;;3.17;1.80;;;;;;;17.89;58.46;102469.69;6339535;22;20453;-78
2022/10/12 09:54:14;;;;;;;3.53;1.80;;;;;;;17.90;58.34;102468.84;6286649;22;20003;-78
2022/10/12 09:56:39;;;;;;;;;;;;;;;17.88;58.54;102457.53;6316578;22;20434;-78
2022/10/12 09:59:19;;;;;;;3.83;1.70;;;;;;;17.87;58.77;102446.22;6341934;22;19910;-79
2022/10/12 10:02:05;;;;;;;2.72;1.55;;;;;;;17.87;58.50;102446.22;6341954;22;20055;-78
2022/10/12 10:04:30;;;;;;;2.70;1.60;;;;;;;17.87;58.63;102448.81;6313439;22;20059;-78
2022/10/12 10:07:22;;;;;;;2.92;1.60;;;;;;;17.87;58.63;102443.63;6312787;22;20376;-78
2022/10/12 10:10:04;;;;;;;3.30;1.67;;;;;;;17.88;58.52;102444.50;6339779;22;20002;-78
2022/10/12 10:12:30;;;;;;;2.30;1.52;;;;;;;17.89;58.53;102448.84;6339816;22;20365;-78
2022/10/12 10:14:57;;;;;;;2.40;1.48;;;;;;;17.87;58.45;102442.75;6312104;22;20010;-78
2022/10/12 10:17:30;;;;;;;3.20;1.70;;;;;;;17.87;58.46;102432.31;6286155;22;20009;-78
2022/10/12 10:19:57;;;;;;;3.97;1.77;;;;;;;17.87;58.73;102420.19;6339852;22;20069;-78
2022/10/12 10:22:23;;;;;;;2.70;1.40;;;;;;;17.87;58.51;102414.09;6339861;22;20414;-78
2022/10/12 10:24:55;;;;;;;5.05;1.85;;;;;;;17.86;58.39;102404.56;6311963;22;20145;-78
2022/10/12 10:27:31;;;;;;;2.30;1.52;;;;;;;17.87;58.40;102398.47;6339882;22;20003;-78
2022/10/12 10:30:15;;;;;;;2.65;1.63;;;;;;;17.86;58.33;102387.19;6339643;22;20007;-78
2022/10/12 10:32:42;;;;;;;3.05;1.58;;;;;;;17.89;58.33;102386.34;6311539;22;20006;-78
2022/10/12 10:35:10;;;;;;;2.90;1.50;;;;;;;17.88;58.34;102382.00;6338039;22;20026;-78
2022/10/12 10:37:38;;;;;;;3.20;1.50;;;;;;;17.87;58.30;102382.84;6311601;22;20105;-78
2022/10/12 10:40:04;;;;;;;2.45;1.40;;;;;;;17.87;58.42;102373.31;6311692;22;20002;-78
2022/10/12 10:42:32;;;;;;;2.55;1.60;;;;;;;17.89;58.45;102375.94;6285959;22;20034;-78
2022/10/12 10:45:01;;;;;;;2.50;1.38;;;;;;;17.88;58.31;102379.41;6340799;22;20018;-78
2022/10/12 10:47:29;;;;;;;2.80;1.42;;;;;;;17.87;58.36;102381.13;6311887;22;20014;-78
2022/10/12 10:50:00;;;;;;;3.53;1.70;;;;;;;17.89;58.42;102373.31;6339151;22;20082;-78
2022/10/12 10:52:32;;;;;;;2.80;1.58;;;;;;;17.89;58.54;102363.78;6339364;22;20414;-78
2022/10/12 10:55:20;;;;;;;2.33;1.45;;;;;;;17.88;58.26;102354.22;6339782;22;20003;-78
2022/10/12 10:57:55;;;;;;;3.33;1.70;;;;;;;17.89;58.22;102358.56;6311413;22;20007;-78
2022/10/12 11:00:21;;;;;;;3.17;1.40;;;;;;;17.91;58.24;102355.13;6339180;22;20022;-78
2022/10/12 11:02:55;;;;;;;2.92;1.48;;;;;;;17.91;58.45;102366.41;6312419;22;20030;-78
2022/10/12 11:05:27;;;;;;;2.58;1.40;;;;;;;17.89;58.23;102363.78;6339152;22;20007;-78
2022/10/12 11:07:59;;;;;;;1.95;1.27;;;;;;;17.92;58.30;102364.69;6339045;22;20010;-78
2022/10/12 11:10:36;;;;;;;2.03;1.25;;;;;;;17.93;58.28;102363.84;6311821;22;20002;-78
2022/10/12 11:13:15;;;;;;;2.67;1.40;;;;;;;17.92;58.20;102372.50;6339488;22;20452;-78
2022/10/12 11:15:43;;;;;;;3.53;1.77;;;;;;;17.91;57.88;102369.03;6311612;22;20010;-78
2022/10/12 11:18:21;;;;;;;2.97;1.40;;;;;;;17.92;57.93;102367.28;6313322;22;20426;-78
2022/10/12 11:21:03;;;;;;;2.85;1.60;;;;;;;17.93;58.02;102363.84;6313230;22;20006;-78
2022/10/12 11:24:07;;;;;;;2.83;1.40;;;;;;;17.94;58.13;102366.44;6341164;22;20084;-78
2022/10/12 11:26:49;;;;;;;3.78;1.60;;;;;;;17.99;57.91;102366.53;6313344;22;20498;-78
2022/10/12 11:29:16;;;;;;;2.67;1.42;;;;;;;18.01;57.83;102370.03;6314237;22;20011;-78
2022/10/12 11:32:07;;;;;;;3.78;1.48;;;;;;;18.02;57.79;102349.19;6341222;22;20056;-78
2022/10/12 11:34:50;;;;;;;2.70;1.25;;;;;;;18.03;57.85;102348.34;6251534;22;20435;-78
2022/10/12 11:37:23;;;;;;;4.45;1.13;;;;;;;18.03;57.89;102357.88;6313022;22;20030;-78
2022/10/12 11:39:52;;;;;;;2.05;1.25;;;;;;;18.02;57.93;102356.13;6313394;22;20011;-78
2022/10/12 11:42:40;;;;;;;3.00;1.30;;;;;;;18.02;57.84;102343.13;6341155;22;20010;-79
2022/10/12 11:45:22;;;;;;;3.42;1.30;;;;;;;18.02;57.86;102338.78;6340634;22;19995;-78
2022/10/12 11:47:54;;;;;;;2.83;1.60;;;;;;;18.03;57.64;102350.97;6313199;22;20093;-78
2022/10/12 11:50:24;;;;;;;3.00;1.45;;;;;;;18.05;57.67;102346.66;6312826;22;20034;-78
2022/10/12 11:52:52;;;;;;;1.90;1.30;;;;;;;18.06;57.61;102342.31;6340854;22;20045;-79
2022/10/12 11:55:36;;;;;;;4.03;1.50;;;;;;;18.06;57.82;102319.72;6313498;22;20011;-88
2022/10/12 11:58:17;;;;;;;1.92;1.25;;;;;;;18.07;57.87;102326.69;6317009;22;20371;-89
2022/10/12 12:00:52;;;;;;;2.10;1.20;;;;;;;18.07;57.85;102331.00;6345993;22;19999;-90
2022/10/12 12:03:32;;;;;;;3.08;1.67;;;;;;;18.05;57.79;102315.38;6314862;22;20015;-89
2022/10/12 12:06:29;;;;;;;2.75;1.40;;;;;;;18.07;57.85;102316.28;6315253;22;20008;-90
2022/10/12 12:09:05;;;;;;;2.70;1.60;;;;;;;18.08;57.63;102318.00;6314889;22;20423;-90
2022/10/12 12:11:33;;;;;;;2.17;1.25;;;;;;;18.09;57.66;102325.00;6329704;22;20334;-88
2022/10/12 12:14:37;;;;;;;2.95;1.40;;;;;;;18.12;57.77;102329.34;6317766;22;20037;-90
2022/10/12 12:17:12;;;;;;;;;;;;;;;18.12;57.69;102329.34;6314622;22;20086;-90
2022/10/12 12:19:42;;;;;;;3.90;1.27;;;;;;;18.11;57.60;102324.97;6314327;22;19909;-90
2022/10/12 12:22:17;;;;;;;3.92;1.58;;;;;;;18.11;57.49;102337.13;6289452;22;20059;-89
2022/10/12 12:24:54;;;;;;;2.80;1.30;;;;;;;18.10;57.58;102333.66;6314319;22;20006;-90
2022/10/12 12:27:32;;;;;;;3.03;1.40;;;;;;;18.09;57.58;102335.41;6314460;22;20434;-90
2022/10/12 12:30:00;;;;;;;2.90;1.33;;;;;;;18.09;57.62;102326.69;6314325;22;20003;-92
2022/10/12 12:32:49;;;;;;;2.78;1.33;;;;;;;18.09;57.74;102321.47;6314449;22;20007;-90
2022/10/12 12:35:27;;;;;;;1.95;1.10;;;;;;;18.09;57.63;102321.47;6314596;22;20009;-91
2022/10/12 12:38:06;;;;;;;2.13;1.30;;;;;;;18.08;57.63;102312.81;6314468;22;20023;-89
2022/10/12 12:40:33;;;;;;;2.33;1.30;;;;;;;18.07;57.76;102307.56;6314414;22;20034;-90
2022/10/12 12:43:34;;;;;;;2.30;1.33;;;;;;;18.07;57.73;102311.06;6314661;22;20124;-90
2022/10/12 12:46:10;;;;;;;2.40;1.40;;;;;;;18.06;57.74;102305.81;6314520;22;20011;-90
2022/10/12 12:48:38;;;;;;;1.73;1.20;;;;;;;18.06;57.74;102298.88;6316091;22;20074;-90
2022/10/12 12:51:13;;;;;;;1.48;0.98;;;;;;;18.06;57.63;102304.09;6313935;22;20038;-89
2022/10/12 12:53:46;;;;;;;2.45;1.20;;;;;;;18.06;57.76;102292.81;6330042;22;19993;-84
2022/10/12 13:02:59;;;;;;;1.52;1.10;;;;;;;18.07;57.61;102303.25;6343346;22;20031;-88
2022/10/12 13:05:49;;;;;;;1.92;1.10;;;;;;;18.06;57.75;102301.50;6314255;22;20015;-88
2022/10/12 13:08:24;;;;;;;2.63;1.30;;;;;;;18.04;57.79;102297.13;6315522;22;19999;-88
2022/10/12 13:11:27;;;;;;;3.72;1.17;;;;;;;18.05;57.54;102296.25;6313740;22;20026;-88
2022/10/12 13:14:21;;;;;;;2.40;1.40;;;;;;;18.06;57.57;102290.19;6315205;22;20006;-89
2022/10/12 13:16:59;;;;;;;;;;;;;;;18.07;57.79;102291.94;6314774;22;20013;-89
2022/10/12 13:19:25;;;;;;;2.20;1.13;;;;;;;18.08;57.60;102285.88;6313288;22;19906;-89
2022/10/12 13:21:53;;;;;;;2.10;1.15;;;;;;;18.11;57.67;102279.81;6287929;22;20051;-89
2022/10/12 13:24:49;;;;;;;1.83;1.10;;;;;;;18.14;57.70;102287.66;6313676;22;20002;-90
2022/10/12 13:27:31;;;;;;;2.42;1.20;;;;;;;18.16;57.35;102288.56;6341215;22;20002;-90
2022/10/12 13:30:18;;;;;;;1.80;0.93;;;;;;;18.16;57.53;102279.03;6313906;22;20017;-89
2022/10/12 13:33:00;;;;;;;2.13;1.13;;;;;;;18.17;57.52;102270.34;6314268;22;20087;-89
2022/10/12 13:35:44;;;;;;;2.25;1.20;;;;;;;18.17;57.71;102265.13;6317636;22;20006;-89
2022/10/12 13:38:12;;;;;;;2.70;1.40;;;;;;;18.18;57.64;102268.59;6319153;22;20026;-89
2022/10/12 13:40:41;;;;;;;2.35;1.25;;;;;;;18.17;57.60;102259.94;6313472;22;20034;-88
2022/10/12 13:43:29;;;;;;;1.95;1.23;;;;;;;18.19;57.54;102259.94;6313132;22;19999;-90
2022/10/12 13:45:54;;;;;;;2.40;1.30;;;;;;;18.17;57.66;102259.94;6313219;22;20006;-90
2022/10/12 13:48:22;;;;;;;3.85;1.40;;;;;;;18.14;57.70;102252.09;6313525;22;20002;-90
2022/10/12 13:50:59;;;;;;;2.22;1.38;;;;;;;18.14;57.81;102245.97;6313114;22;20427;-90
2022/10/12 13:53:26;;;;;;;2.15;1.10;;;;;;;18.12;57.60;102247.69;6341255;22;20080;-89
2022/10/12 13:56:07;;;;;;;2.03;1.17;;;;;;;18.08;57.89;102232.03;6340949;22;20013;-90
2022/10/12 13:58:34;;;;;;;1.88;1.10;;;;;;;18.08;57.84;102231.19;6313956;22;20002;-88
2022/10/12 14:01:00;;;;;;;1.88;1.17;;;;;;;18.08;57.84;102231.19;6287854;22;20094;-90
2022/10/12 14:03:33;;;;;;;2.28;1.10;;;;;;;18.08;57.67;102226.84;6313253;22;20007;-89
2022/10/12 14:05:58;;;;;;;2.20;1.20;;;;;;;18.08;57.73;102221.63;6341447;22;20429;-88
2022/10/12 14:08:26;;;;;;;2.80;1.40;;;;;;;18.08;57.65;102219.03;6261368;22;20011;-90
2022/10/12 14:10:53;;;;;;;2.17;1.40;;;;;;;18.08;57.76;102216.41;6313151;22;20013;-88
2022/10/12 14:13:32;;;;;;;2.20;1.10;;;;;;;18.08;57.86;102211.19;6340392;22;20442;-90
2022/10/12 14:15:59;;;;;;;3.72;1.40;;;;;;;18.09;57.74;102222.50;6312665;22;19999;-88
2022/10/12 14:18:32;;;;;;;2.55;1.35;;;;;;;18.09;57.77;102219.88;6346853;22;20058;-84
2022/10/12 14:21:27;;;;;;;2.42;1.23;;;;;;;18.08;57.76;102207.72;6345100;22;20025;-89
2022/10/12 14:23:57;;;;;;;2.63;1.05;;;;;;;18.08;57.82;102202.53;6313488;22;19998;-88
2022/10/12 14:26:42;;;;;;;2.10;1.15;;;;;;;18.06;57.85;102188.59;6313365;22;20034;-88
2022/10/12 14:29:35;;;;;;;1.98;1.10;;;;;;;18.06;57.59;102186.88;6313508;22;20086;-89
2022/10/12 14:32:06;;;;;;;2.20;1.00;;;;;;;18.05;57.67;102182.53;6313173;22;20003;-88
2022/10/12 14:34:36;;;;;;;2.65;1.20;;;;;;;18.03;57.74;102179.03;6313358;22;20035;-88
2022/10/12 14:37:15;;;;;;;1.98;1.10;;;;;;;18.05;57.90;102179.03;6313189;22;20019;-89
2022/10/12 14:39:47;;;;;;;2.15;1.00;;;;;;;18.05;57.62;102176.41;6313670;22;19999;-90
2022/10/12 14:42:25;;;;;;;2.50;1.13;;;;;;;18.04;57.75;102175.56;6313217;22;20545;-88
2022/10/12 14:44:51;;;;;;;2.67;1.25;;;;;;;18.05;57.97;102179.03;6312976;22;20003;-88
2022/10/12 14:47:22;;;;;;;1.83;1.00;;;;;;;18.04;57.61;102192.94;6287133;22;20013;-88
2022/10/12 14:49:50;;;;;;;2.08;1.30;;;;;;;18.04;57.62;102191.19;6313285;22;20014;-90
2022/10/12 14:52:38;;;;;;;2.33;1.33;;;;;;;18.04;57.62;102179.91;6314576;22;20003;-90
2022/10/12 14:55:05;;;;;;;1.92;1.00;;;;;;;18.04;57.76;102177.28;6343092;22;19999;-90
2022/10/12 14:57:31;;;;;;;2.10;1.10;;;;;;;18.03;57.88;102173.81;6315553;22;20013;-90
2022/10/12 14:59:57;;;;;;;2.83;1.33;;;;;;;18.03;57.55;102178.13;6343871;22;20002;-87
2022/10/12 15:02:25;;;;;;;1.90;1.10;;;;;;;18.01;57.77;102170.34;6330421;22;20035;-83